Weather observations for the past three days for
Allendale County Airport
Imperial (Metric)
Date Time (edt) Wind (mph) Vis. (mi.) Weather Sky Cond. Temperature (ºF) Relative Humidity Wind Chill (°F) Heat Index (°F) Pressure Precipitation (in)
Air Dwpt 6 hour altimeter (in) sea level (mb) 1 hr 3 hr 6 hr
Max. Min.
03 23:35 Calm 10.00 Fair CLR 78.8 75.2 89% 82 30.03 0.0
03 23:15 Calm 10.00 Fair CLR 78.8 75.2 89% 82 30.03 0.0
03 22:55 Calm 10.00 Fair CLR 78.8 75.2 89% 82 30.04 0.0
03 22:35 Calm 10.00 Fair CLR 80.6 75.2 84% 86 30.03 0.0
03 22:15 Calm 10.00 Fair CLR 80.6 75.2 84% 86 30.03 0.0
03 21:55 Calm 10.00 Fair CLR 80.6 75.2 84% 86 30.02 0.0
03 21:35 Calm 10.00 Fair CLR 82.4 75.2 79% 89 30.02 0.0
03 21:15 Calm 10.00 Fair CLR 82.4 75.2 79% 89 30.01 0.0
03 20:55 Calm 10.00 Fair CLR 82.4 75.2 79% 89 30.01 0.0
03 20:35 SE 6 10.00 Fair CLR 84.2 75.2 74% 92 30 0.0
03 20:15 SE 6 9.00 Fair CLR 84.2 75.2 74% 92 29.99 0.0
03 19:55 Calm 10.00 Fair CLR 86 75.2 70% 95 29.98 0.0
03 19:35 SE 7 10.00 Fair CLR 87.8 75.2 66% 98 29.98 0.0
03 19:15 SE 8 10.00 Fair CLR 87.8 75.2 66% 98 29.98 0.0
03 18:55 SE 8 10.00 A Few Clouds FEW040 89.6 75.2 63% 100 29.98 0.0
03 18:35 SE 7 10.00 Fair CLR 89.6 75.2 63% 100 29.98 0.0
03 18:15 SE 10 10.00 Fair CLR 91.4 73.4 56% 100 29.98 0.0
03 17:55 Calm 10.00 A Few Clouds FEW050 89.6 71.6 55% 96 29.97 0.0
03 17:35 E 8 10.00 Partly Cloudy SCT050 91.4 71.6 52% 99 29.98 0.0
03 17:15 SE 8 10.00 Partly Cloudy SCT055 93.2 71.6 50% 101 29.97 0.0
03 16:55 Vrbl 6 G 13 10.00 A Few Clouds FEW055 91.4 69.8 49% 97 29.98 0.0
03 16:35 SE 8 G 15 10.00 A Few Clouds FEW055 93.2 69.8 47% 99 29.99 0.0
03 16:15 Vrbl 6 G 13 10.00 A Few Clouds FEW050 FEW055 93.2 69.8 47% 99 29.99 0.0
03 15:55 SE 7 G 14 10.00 Partly Cloudy FEW050 SCT060 93.2 71.6 50% 101 29.99 0.0
03 15:35 SE 10 10.00 A Few Clouds FEW050 93.2 71.6 50% 101 30 0.0
03 15:15 SE 7 G 15 10.00 A Few Clouds FEW048 FEW055 93.2 71.6 50% 101 30 0.0
03 14:55 SE 8 10.00 Mostly Cloudy SCT048 BKN055 93.2 71.6 50% 101 30.01 0.0
03 14:35 Calm 10.00 Mostly Cloudy BKN048 BKN055 91.4 73.4 56% 100 30.01 0.0
03 14:15 Calm 10.00 Mostly Cloudy BKN048 BKN060 91.4 73.4 56% 100 30.02 0.0
03 13:55 SE 7 10.00 Partly Cloudy SCT049 SCT055 91.4 71.6 52% 99 30.02 0.0
03 13:35 SE 9 10.00 A Few Clouds FEW050 FEW055 91.4 71.6 52% 99 30.03 0.0
03 13:15 Calm 10.00 A Few Clouds FEW055 91.4 71.6 52% 99 30.03 0.0
03 12:55 Calm 10.00 Partly Cloudy SCT055 91.4 71.6 52% 99 30.04 0.0
03 12:35 Vrbl 3 10.00 Fair CLR 91.4 71.6 52% 99 30.04 0.0
03 12:15 Calm 10.00 A Few Clouds FEW050 89.6 71.6 55% 96 30.05 0.0
03 11:55 N 5 10.00 Fair CLR 89.6 71.6 55% 96 30.05 0.0
03 11:35 Calm 10.00 Fair CLR 87.8 71.6 59% 94 30.06 0.0
03 11:15 Calm 10.00 Fair CLR 87.8 71.6 59% 94 30.06 0.0
03 10:55 Calm 10.00 Fair CLR 86 71.6 62% 92 30.06 0.0
03 10:35 Calm 10.00 Fair CLR 84.2 73.4 70% 91 30.05 0.0
03 10:15 Calm 10.00 Fair CLR 84.2 75.2 74% 92 30.05 0.0
03 09:55 Calm 10.00 Fair CLR 82.4 75.2 79% 89 30.05 0.0
03 09:35 Calm 10.00 Fair CLR 82.4 77 84% 91 30.06 0.0
03 09:15 Calm 10.00 Fair CLR 80.6 75.2 84% 86 30.07 0.0
03 08:55 Calm 10.00 Fair CLR 78.8 75.2 89% 82 30.07 0.0
03 08:35 Calm 10.00 Fair CLR 78.8 75.2 89% 82 30.07 0.0
03 08:15 Calm 10.00 Fair CLR 75.2 75.2 100% 73 30.07 0.0
03 07:55 Calm 10.00 Fair CLR 73.4 73.4 100% 30.06 0.0
03 07:35 Calm 10.00 Fair CLR 73.4 73.4 100% 30.05 0.0
03 07:15 Calm 10.00 Fair CLR 71.6 71.6 100% 30.05 0.0
03 06:55 Calm 10.00 Fair CLR 71.6 71.6 100% 30.04 0.0
03 06:15 Calm 10.00 Fair CLR 71.6 71.6 100% 30.04 0.0
03 05:55 Calm 10.00 Fair CLR 73.4 71.6 94% 30.03 0.0
03 05:35 Calm 10.00 Fair CLR 73.4 73.4 100% 30.03 0.0
03 05:15 Calm 10.00 Fair CLR 73.4 73.4 100% 30.03 0.0
03 04:55 Calm 9.00 Fair CLR 73.4 73.4 100% 30.02 0.0
03 04:35 Calm 10.00 Fair CLR 73.4 73.4 100% 30.02 0.0
03 04:15 Calm 9.00 Fair CLR 73.4 73.4 100% 30.02 0.0
03 03:55 Calm 10.00 Fair CLR 73.4 73.4 100% 30.01 0.0
03 03:35 Calm 7.00 Fair CLR 75.2 73.4 94% 74 30.01 0.0
03 03:15 Calm 9.00 Fair CLR 73.4 73.4 100% 30.01 0.0
03 02:55 Calm 6.00 Fog/Mist CLR 75.2 73.4 94% 74 30.01 0.0
03 02:35 Calm 9.00 Fair CLR 75.2 73.4 94% 74 30.01 0.0
03 02:15 Calm 9.00 Fair CLR 75.2 73.4 94% 74 30.02 0.0
03 01:55 Calm 8.00 Fair CLR 77 73.4 89% 78 30.02 0.0
03 01:35 Calm 10.00 Fair CLR 77 73.4 89% 78 30.03 0.0
03 01:15 Calm 10.00 Fair CLR 77 75.2 94% 78 30.03 0.0
03 00:55 Calm 10.00 Fair CLR 78.8 73.4 84% 82 30.03 0.0
03 00:35 Calm 10.00 Fair CLR 78.8 73.4 84% 82 30.03 0.0
03 00:15 Calm 10.00 Fair CLR 78.8 75.2 89% 82 30.04 0.0
02 23:55 Calm 10.00 Fair CLR 78.8 73.4 84% 82 30.04 0.0
02 23:35 Calm 10.00 Fair CLR 78.8 73.4 84% 82 30.04 0.0
02 23:15 Calm 10.00 Fair CLR 80.6 75.2 84% 86 30.04 0.0
02 22:55 Calm 10.00 Fair CLR 80.6 75.2 84% 86 30.05 0.0
02 22:35 Calm 10.00 Fair CLR 80.6 75.2 84% 86 30.04 0.0
02 22:15 Calm 10.00 Fair CLR 80.6 75.2 84% 86 30.04 0.0
02 21:55 Calm 10.00 Fair CLR 82.4 75.2 79% 89 30.04 0.0
02 21:35 Calm 10.00 Fair CLR 82.4 75.2 79% 89 30.04 0.0
02 21:15 Calm 10.00 Fair CLR 82.4 75.2 79% 89 30.03 0.0
02 20:55 Calm 10.00 Fair CLR 84.2 75.2 74% 92 30.02 0.0
02 20:35 Calm 10.00 Fair CLR 84.2 75.2 74% 92 30.01 0.0
02 20:15 Calm 10.00 Fair CLR 86 75.2 70% 95 30.01 0.0
02 19:55 Calm 10.00 Fair CLR 86 75.2 70% 95 30 0.0
02 19:35 Calm 10.00 Fair CLR 89.6 73.4 59% 98 30 0.0
02 19:15 Calm 10.00 Fair CLR 89.6 73.4 59% 98 30 0.0
02 18:55 Calm 10.00 Fair CLR 89.6 73.4 59% 98 30 0.0
02 18:35 Calm 10.00 Fair CLR 91.4 73.4 56% 100 30 0.0
02 18:15 Calm 10.00 Fair CLR 91.4 73.4 56% 100 30 0.0
02 17:55 SE 5 10.00 Fair CLR 93.2 73.4 53% 103 30 0.0
02 17:35 Calm 10.00 Fair CLR 93.2 71.6 50% 101 30 0.0
02 17:15 Calm 10.00 Fair CLR 93.2 73.4 53% 103 30 0.0
02 16:55 Calm 10.00 Partly Cloudy SCT060 SCT070 SCT100 91.4 73.4 56% 100 30.01 0.0
02 16:35 SE 5 10.00 Mostly Cloudy BKN060 BKN100 93.2 73.4 53% 103 30.01 0.0
02 16:15 Calm 10.00 Partly Cloudy SCT055 95 71.6 47% 103 30.01 0.0
02 15:55 SE 5 10.00 A Few Clouds FEW055 FEW095 95 71.6 47% 103 30.02 0.0
02 15:35 Calm 10.00 Mostly Cloudy BKN055 BKN070 BKN090 93.2 71.6 50% 101 30.03 0.0
02 15:15 Calm 10.00 A Few Clouds FEW090 93.2 69.8 47% 99 30.03 0.0
02 14:55 Calm 10.00 Partly Cloudy SCT050 SCT055 91.4 73.4 56% 100 30.04 0.0
02 14:35 Calm 10.00 Partly Cloudy SCT050 SCT065 93.2 71.6 50% 101 30.04 0.0
02 14:15 Calm 10.00 Partly Cloudy FEW050 SCT065 SCT080 93.2 71.6 50% 101 30.05 0.0
02 13:55 Calm 10.00 Mostly Cloudy SCT049 SCT055 BKN070 93.2 71.6 50% 101 30.05 0.0
02 13:35 Calm 10.00 Mostly Cloudy SCT050 SCT060 BKN075 91.4 71.6 52% 99 30.06 0.0
02 13:15 Calm 10.00 Overcast BKN050 BKN060 OVC070 91.4 73.4 56% 100 30.06 0.0
02 12:55 Calm 10.00 Mostly Cloudy SCT055 BKN065 89.6 73.4 59% 98 30.07 0.0
02 12:35 Calm 10.00 A Few Clouds FEW065 91.4 73.4 56% 100 30.07 0.0
02 12:15 Calm 10.00 Fair CLR 89.6 73.4 59% 98 30.08 0.0
02 11:55 Calm 10.00 Fair CLR 89.6 73.4 59% 98 30.08 0.0
02 11:35 Calm 10.00 Fair CLR 89.6 73.4 59% 98 30.09 0.0
02 11:15 Calm 10.00 Fair CLR 87.8 73.4 62% 96 30.09 0.0
02 10:55 Calm 10.00 Fair CLR 86 73.4 66% 93 30.08 0.0
02 10:35 Calm 10.00 Fair CLR 86 73.4 66% 93 30.09 0.0
02 10:15 Calm 10.00 Fair CLR 84.2 73.4 70% 91 30.09 0.0
02 09:55 Calm 10.00 Fair CLR 84.2 75.2 74% 92 30.09 0.0
02 09:35 Calm 10.00 Fair CLR 82.4 75.2 79% 89 30.09 0.0
02 09:15 Calm 10.00 Fair CLR 80.6 77 89% 87 30.09 0.0
02 08:55 Calm 10.00 Fair CLR 78.8 77 94% 83 30.09 0.0
02 08:35 Calm 10.00 Fair CLR 78.8 77 94% 83 30.09 0.0
02 07:55 Calm 10.00 Fair CLR 75.2 75.2 100% 73 30.09 0.0
02 07:35 Calm 10.00 Fair CLR 73.4 73.4 100% 30.09 0.0
02 07:15 Calm 10.00 Fair CLR 73.4 73.4 100% 30.08 0.0
02 06:55 Calm 10.00 Fair CLR 73.4 73.4 100% 30.07 0.0
02 06:35 Calm 10.00 Fair CLR 73.4 73.4 100% 30.07 0.0
02 06:15 Calm 10.00 Fair CLR 73.4 73.4 100% 30.07 0.0
02 05:55 Calm 10.00 Fair CLR 73.4 73.4 100% 30.06 0.0
02 05:35 Calm 10.00 Fair CLR 73.4 73.4 100% 30.06 0.0
02 05:15 Calm 10.00 Fair CLR 73.4 73.4 100% 30.06 0.0
02 04:55 Calm 10.00 Fair CLR 75.2 75.2 100% 73 30.06 0.0
02 04:35 Calm 10.00 Fair CLR 75.2 75.2 100% 73 30.06 0.0
02 04:15 Calm 10.00 Fair CLR 75.2 73.4 94% 74 30.05 0.0
02 03:55 Calm 10.00 Fair CLR 75.2 75.2 100% 73 30.05 0.0
02 03:35 Calm 10.00 Fair CLR 75.2 75.2 100% 73 30.04 0.0
02 03:15 Calm 10.00 Fair CLR 75.2 73.4 94% 74 30.04 0.0
02 02:55 Calm 10.00 Fair CLR 75.2 75.2 100% 73 30.04 0.0
02 02:35 Calm 10.00 Fair CLR 75.2 73.4 94% 74 30.05 0.0
02 02:15 Calm 10.00 Fair CLR 75.2 73.4 94% 74 30.05 0.0
02 01:55 Calm 10.00 Fair CLR 75.2 73.4 94% 74 30.06 0.0
02 01:35 Calm 10.00 Fair CLR 77 73.4 89% 78 30.06 0.0
02 01:15 Calm 10.00 Fair CLR 77 73.4 89% 78 30.05 0.0
02 00:55 Calm 10.00 Fair CLR 77 73.4 89% 78 30.06 0.0
02 00:35 Calm 10.00 Fair CLR 77 73.4 89% 78 30.06 0.0
02 00:15 Calm 10.00 Fair CLR 78.8 73.4 84% 82 30.06 0.0
01 23:55 Calm 10.00 Fair CLR 78.8 73.4 84% 82 30.06 0.0
01 23:35 Calm 10.00 Fair CLR 80.6 73.4 79% 85 30.06 0.0
01 23:15 Calm 10.00 Fair CLR 80.6 75.2 84% 86 30.06 0.0
01 22:55 Calm 10.00 Fair CLR 80.6 75.2 84% 86 30.06 0.0
01 22:35 Calm 10.00 Fair CLR 80.6 75.2 84% 86 30.06 0.0
01 22:15 Calm 10.00 Fair CLR 80.6 75.2 84% 86 30.06 0.0
01 21:55 Calm 10.00 Fair CLR 82.4 75.2 79% 89 30.05 0.0
01 21:35 Calm 10.00 Fair CLR 82.4 77 84% 91 30.04 0.0
01 21:15 Calm 10.00 Fair CLR 82.4 75.2 79% 89 30.03 0.0
01 20:55 Calm 10.00 Fair CLR 82.4 73.4 74% 88 30.03 0.0
01 20:35 Calm 10.00 Fair CLR 82.4 75.2 79% 89 30.02 0.0
01 20:15 Calm 10.00 Fair CLR 84.2 75.2 74% 92 30.02 0.0
01 19:55 Calm 10.00 Fair CLR 84.2 73.4 70% 91 30.01 0.0
01 19:35 Calm 10.00 Fair CLR 87.8 71.6 59% 94 30.02 0.0
01 19:15 Calm 10.00 Fair CLR 89.6 71.6 55% 96 30.02 0.0
01 18:55 Calm 10.00 Fair CLR 89.6 71.6 55% 96 30.02 0.0
01 18:35 Calm 10.00 Fair CLR 89.6 69.8 52% 95 30.02 0.0
01 18:15 Calm 10.00 Fair CLR 91.4 71.6 52% 99 30.02 0.0
01 17:55 Calm 10.00 Fair CLR 91.4 71.6 52% 99 30.02 0.0
01 17:35 Calm 10.00 A Few Clouds FEW060 91.4 71.6 52% 99 30.02 0.0
01 17:15 Calm 10.00 Partly Cloudy FEW055 SCT065 SCT075 93.2 69.8 47% 99 30.02 0.0
01 16:55 Calm 10.00 A Few Clouds FEW055 FEW065 FEW075 93.2 71.6 50% 101 30.02 0.0
01 16:35 Calm 10.00 Partly Cloudy SCT055 SCT065 91.4 71.6 52% 99 30.02 0.0
01 16:15 Calm 10.00 A Few Clouds FEW060 FEW075 93.2 71.6 50% 101 30.02 0.0
01 15:55 Calm 10.00 A Few Clouds FEW060 FEW075 93.2 71.6 50% 101 30.03 0.0
01 15:35 Calm 10.00 A Few Clouds FEW050 93.2 71.6 50% 101 30.03 0.0
01 15:15 Calm 10.00 Partly Cloudy SCT050 91.4 71.6 52% 99 30.04 0.0
01 14:55 Calm 10.00 A Few Clouds FEW050 91.4 71.6 52% 99 30.05 0.0
01 14:35 Calm 10.00 Fair CLR 91.4 71.6 52% 99 30.06 0.0
01 14:15 Calm 10.00 Fair CLR 91.4 69.8 49% 97 30.06 0.0
01 13:55 Calm 10.00 Fair CLR 91.4 71.6 52% 99 30.07 0.0
01 13:35 Calm 10.00 Fair CLR 91.4 71.6 52% 99 30.08 0.0
01 13:15 Calm 10.00 A Few Clouds FEW045 89.6 71.6 55% 96 30.08 0.0
01 12:55 Calm 10.00 A Few Clouds FEW043 89.6 73.4 59% 98 30.08 0.0
01 12:35 Calm 10.00 A Few Clouds FEW039 89.6 73.4 59% 98 30.09 0.0
01 12:15 Calm 10.00 A Few Clouds FEW038 89.6 73.4 59% 98 30.1 0.0
01 11:55 Calm 10.00 Partly Cloudy SCT035 87.8 75.2 66% 98 30.1 0.0
01 11:35 Calm 10.00 Mostly Cloudy BKN032 87.8 75.2 66% 98 30.11 0.0
01 11:15 Calm 10.00 Fair CLR 86 73.4 66% 93 30.11 0.0
01 10:55 N 5 10.00 A Few Clouds FEW028 86 73.4 66% 93 30.11 0.0
01 10:35 Calm 10.00 Fair CLR 84.2 73.4 70% 91 30.11 0.0
01 10:15 Calm 10.00 Fair CLR 82.4 73.4 74% 88 30.11 0.0
01 09:55 Calm 10.00 Fair CLR 82.4 75.2 79% 89 30.11 0.0
01 09:35 Calm 10.00 Fair CLR 80.6 75.2 84% 86 30.11 0.0
01 09:15 Calm 10.00 Fair CLR 80.6 75.2 84% 86 30.11 0.0
01 08:55 Calm 10.00 Fair CLR 78.8 75.2 89% 82 30.11 0.0
01 08:35 Calm 10.00 Fair CLR 77 77 100% 78 30.1 0.0
01 08:15 Calm 10.00 Fair CLR 75.2 75.2 100% 73 30.1 0.0
01 07:55 Calm 10.00 Fair CLR 73.4 73.4 100% 30.09 0.0
01 07:35 Calm 9.00 Fair CLR 71.6 71.6 100% 30.09 0.0
01 07:15 Calm 9.00 Fair CLR 71.6 71.6 100% 30.07 0.0
01 06:55 Calm 10.00 Fair CLR 71.6 71.6 100% 30.07 0.0
01 06:35 Calm 10.00 Fair CLR 71.6 71.6 100% 30.07 0.0
01 06:15 Calm 10.00 Fair CLR 71.6 71.6 100% 30.07 0.0
01 05:55 Calm 10.00 Fair CLR 71.6 71.6 100% 30.07 0.0
01 05:35 Calm 10.00 Fair CLR 73.4 73.4 100% 30.07 0.0
01 05:15 Calm 10.00 Fair CLR 73.4 73.4 100% 30.06 0.0
01 04:55 Calm 10.00 Fair CLR 73.4 73.4 100% 30.06 0.0
01 04:35 Calm 10.00 Fair CLR 73.4 73.4 100% 30.06 0.0
01 04:15 Calm 10.00 Fair CLR 73.4 73.4 100% 30.06 0.0
01 03:55 Calm 10.00 Fair CLR 73.4 73.4 100% 30.06 0.0
01 03:35 Calm 10.00 Fair CLR 73.4 73.4 100% 30.06 0.0
01 03:15 Calm 10.00 Fair CLR 73.4 73.4 100% 30.07 0.0
01 02:55 Calm 10.00 Fair CLR 73.4 73.4 100% 30.07 0.0
01 02:35 Calm 10.00 Fair CLR 75.2 75.2 100% 73 30.07 0.0
01 02:15 Calm 10.00 Fair CLR 75.2 75.2 100% 73 30.08 0.0
01 01:55 Calm 10.00 Fair CLR 75.2 75.2 100% 73 30.08 0.0
01 01:35 Calm 10.00 Fair CLR 75.2 75.2 100% 73 30.09 0.0
01 01:15 Calm 10.00 Fair CLR 75.2 75.2 100% 73 30.09 0.0
01 00:55 Calm 10.00 Fair CLR 75.2 75.2 100% 73 30.1 0.0
01 00:35 Calm 10.00 Fair CLR 77 75.2 94% 78 30.09 0.0
01 00:15 Calm 10.00 Fair CLR 77 75.2 94% 78 30.09 0.0
Date Time (edt) Wind (mph) Vis. (mi.) Weather Sky Cond. Air Dwpt Max. Min. Relative Humidity Wind Chill (°F) Heat Index (°F) altimeter (in) sea level (mb) 1 hr 3 hr 6 hr
6 hour
Temperature (ºF) Pressure Precipitation (in)